Time;durP1;ratioP1;P1;durP2;ratioP2;P2;SDS_P1;SDS_P2;PMS_P1;PMS_P2;Temp;Humidity;BMP_temperature;BMP_pressure;BME280_temperature;BME280_humidity;BME280_pressure;Samples;Min_cycle;Max_cycle;Signal;HPM_P1;HPM_P2
2022/10/30 13:28:43;;;;;;;35.45;4.85;;;;;;;;;;5063542;28;20419;-40
2022/10/30 13:31:16;;;;;;;46.53;5.95;;;;;;;;;;5046773;28;20529;-40
2022/10/30 13:33:43;;;;;;;41.75;5.65;;;;;;;;;;5004769;28;20107;-40
2022/10/30 13:36:28;;;;;;;32.33;5.60;;;;;;;;;;5021048;28;20044;-40
2022/10/30 13:39:33;;;;;;;49.78;6.65;;;;;;;;;;4975115;28;20518;-40
2022/10/30 13:42:02;;;;;;;18.92;4.47;;;;;;;;;;4994939;28;20042;-40
2022/10/30 13:44:34;;;;;;;33.90;6.15;;;;;;;;;;4999487;28;20042;-41
2022/10/30 13:47:13;;;;;;;20.92;4.57;;;;;;;;;;5000027;28;20170;-41
2022/10/30 13:49:48;;;;;;;20.23;4.60;;;;;;;;;;5000793;28;20823;-41
2022/10/30 13:52:16;;;;;;;44.35;7.28;;;;;;;;;;4999883;28;20049;-40
2022/10/30 13:55:04;;;;;;;18.25;4.35;;;;;;;;;;4999100;28;20153;-41
2022/10/30 13:57:41;;;;;;;23.40;4.70;;;;;;;;;;4999446;28;20073;-41
2022/10/30 14:00:10;;;;;;;30.35;5.95;;;;;;;;;;4999324;28;20050;-40
2022/10/30 14:03:03;;;;;;;33.80;5.82;;;;;;;;;;4999063;28;20053;-40
2022/10/30 14:05:36;;;;;;;33.97;6.03;;;;;;;;;;4973404;28;20058;-40
2022/10/30 14:08:25;;;;;;;31.27;5.53;;;;;;;;;;4999262;28;20053;-40
2022/10/30 14:10:56;;;;;;;41.20;6.32;;;;;;;;;;4989343;28;20298;-40
2022/10/30 14:13:27;;;;;;;37.72;6.40;;;;;;;;;;5020617;28;20111;-41
2022/10/30 14:15:54;;;;;;;19.25;5.43;;;;;;;;;;5026403;28;20056;-40
2022/10/30 14:18:25;;;;;;;44.35;7.47;;;;;;;;;;5021224;28;20069;-40
2022/10/30 14:20:53;;;;;;;20.90;5.03;;;;;;;;;;5021451;28;20041;-40
2022/10/30 14:23:19;;;;;;;24.38;5.57;;;;;;;;;;5020888;28;20048;-39
2022/10/30 14:26:04;;;;;;;34.08;7.10;;;;;;;;;;5022032;28;20046;-41
2022/10/30 14:28:49;;;;;;;38.85;8.13;;;;;;;;;;5021576;28;20123;-40
2022/10/30 14:31:17;;;;;;;30.70;7.20;;;;;;;;;;5022406;28;20049;-41
2022/10/30 14:33:54;;;;;;;30.52;6.78;;;;;;;;;;5021616;28;20041;-40
2022/10/30 14:36:25;;;;;;;38.50;7.40;;;;;;;;;;5021143;28;20073;-39
2022/10/30 14:38:59;;;;;;;18.73;5.72;;;;;;;;;;5013526;28;20044;-41
2022/10/30 14:41:44;;;;;;;29.85;8.15;;;;;;;;;;5010806;28;20057;-41
2022/10/30 14:44:27;;;;;;;39.55;8.48;;;;;;;;;;5009885;28;20038;-40
2022/10/30 14:46:56;;;;;;;46.05;8.38;;;;;;;;;;5007819;28;20048;-40
2022/10/30 14:49:46;;;;;;;49.53;9.93;;;;;;;;;;5011052;28;20047;-40
2022/10/30 14:52:35;;;;;;;40.97;8.73;;;;;;;;;;5011793;28;20053;-40
2022/10/30 14:55:01;;;;;;;30.48;8.32;;;;;;;;;;5010576;28;20049;-39
2022/10/30 14:57:46;;;;;;;30.42;9.75;;;;;;;;;;5008050;28;20049;-39
2022/10/30 15:00:22;;;;;;;31.75;9.45;;;;;;;;;;5007734;28;20045;-39
2022/10/30 15:03:10;;;;;;;23.35;7.53;;;;;;;;;;5007677;28;20089;-40
2022/10/30 15:05:42;;;;;;;32.40;9.13;;;;;;;;;;4985684;28;20049;-39
2022/10/30 15:08:29;;;;;;;26.37;8.33;;;;;;;;;;4985071;28;20054;-40
2022/10/30 15:10:56;;;;;;;34.83;9.38;;;;;;;;;;4985399;28;20071;-40
2022/10/30 15:13:22;;;;;;;39.10;9.68;;;;;;;;;;4989197;28;20046;-40
2022/10/30 15:15:59;;;;;;;35.80;9.95;;;;;;;;;;4986623;28;20043;-40
2022/10/30 15:18:26;;;;;;;51.40;11.45;;;;;;;;;;4984096;28;20050;-39
2022/10/30 15:21:00;;;;;;;35.05;10.32;;;;;;;;;;4984168;28;20643;-40
2022/10/30 15:23:31;;;;;;;35.00;10.85;;;;;;;;;;4984653;28;20065;-40
2022/10/30 15:25:58;;;;;;;26.40;9.85;;;;;;;;;;4982603;28;20526;-39
2022/10/30 15:28:33;;;;;;;51.83;11.93;;;;;;;;;;4984425;28;20064;-39
2022/10/30 15:31:07;;;;;;;58.10;12.32;;;;;;;;;;4986253;28;20054;-39
2022/10/30 15:33:36;;;;;;;29.02;9.45;;;;;;;;;;4984177;28;20062;-39
2022/10/30 15:36:03;;;;;;;26.15;9.07;;;;;;;;;;4984975;28;20141;-39
2022/10/30 15:38:30;;;;;;;33.20;10.07;;;;;;;;;;4971979;28;20057;-39
2022/10/30 15:41:03;;;;;;;40.03;11.57;;;;;;;;;;4970619;28;20051;-40
2022/10/30 15:43:33;;;;;;;69.72;16.35;;;;;;;;;;5002933;28;20057;-39
2022/10/30 15:46:01;;;;;;;37.05;14.45;;;;;;;;;;5009756;28;20038;-40
2022/10/30 15:48:30;;;;;;;48.38;17.00;;;;;;;;;;5006256;28;20046;-39
2022/10/30 15:51:05;;;;;;;52.65;18.73;;;;;;;;;;5006853;28;21317;-39
2022/10/30 15:53:34;;;;;;;52.25;16.58;;;;;;;;;;5009035;28;20533;-39
2022/10/30 15:56:01;;;;;;;56.58;17.67;;;;;;;;;;5007386;28;20042;-39
2022/10/30 15:58:30;;;;;;;54.70;17.35;;;;;;;;;;5008641;28;20046;-40
2022/10/30 16:01:00;;;;;;;39.38;15.18;;;;;;;;;;5008908;28;20046;-39
2022/10/30 16:03:28;;;;;;;48.97;17.45;;;;;;;;;;5003625;28;20165;-38
2022/10/30 16:06:15;;;;;;;42.38;17.65;;;;;;;;;;5005884;28;20513;-40
2022/10/30 16:08:43;;;;;;;42.63;16.98;;;;;;;;;;5005381;28;20469;-40
2022/10/30 16:11:10;;;;;;;54.38;16.75;;;;;;;;;;5006280;28;20483;-39
2022/10/30 16:13:36;;;;;;;52.80;17.95;;;;;;;;;;5010314;28;20050;-40
2022/10/30 16:16:03;;;;;;;46.75;16.10;;;;;;;;;;5010232;28;20049;-39
2022/10/30 16:18:31;;;;;;;41.08;15.63;;;;;;;;;;5005256;28;20073;-40
2022/10/30 16:21:03;;;;;;;100.75;22.00;;;;;;;;;;5001854;28;20042;-40
2022/10/30 16:23:35;;;;;;;54.65;16.08;;;;;;;;;;5001030;28;20506;-39
2022/10/30 16:26:02;;;;;;;37.50;13.80;;;;;;;;;;5003358;28;20070;-39
2022/10/30 16:28:30;;;;;;;43.78;14.80;;;;;;;;;;5007549;28;20054;-39
2022/10/30 16:30:59;;;;;;;52.50;16.00;;;;;;;;;;5006356;28;20034;-39
2022/10/30 16:33:26;;;;;;;69.65;18.00;;;;;;;;;;5005296;28;20046;-40
2022/10/30 16:35:54;;;;;;;55.53;16.08;;;;;;;;;;5004021;28;20041;-39
2022/10/30 16:38:22;;;;;;;68.15;17.23;;;;;;;;;;5001908;28;20045;-39
2022/10/30 16:40:49;;;;;;;49.63;15.93;;;;;;;;;;5003478;28;20667;-40
2022/10/30 16:43:32;;;;;;;52.15;17.25;;;;;;;;;;5009110;28;20061;-40
2022/10/30 16:46:11;;;;;;;42.55;16.95;;;;;;;;;;5006602;28;20041;-39
2022/10/30 16:48:40;;;;;;;60.33;18.80;;;;;;;;;;5003824;28;20136;-39
2022/10/30 16:51:13;;;;;;;46.50;18.95;;;;;;;;;;5003435;28;20037;-40
2022/10/30 16:53:44;;;;;;;44.97;18.55;;;;;;;;;;5006931;28;20038;-39
2022/10/30 16:56:16;;;;;;;74.30;27.17;;;;;;;;;;5005019;28;20037;-38
2022/10/30 16:58:43;;;;;;;59.25;26.70;;;;;;;;;;5003525;28;20046;-39
2022/10/30 17:01:09;;;;;;;64.72;24.85;;;;;;;;;;5007798;28;20042;-40
2022/10/30 17:03:37;;;;;;;64.63;23.75;;;;;;;;;;5002888;28;20072;-38
2022/10/30 17:06:05;;;;;;;81.15;23.50;;;;;;;;;;5004866;28;20065;-38
2022/10/30 17:08:38;;;;;;;75.85;25.83;;;;;;;;;;5005114;28;20046;-39
2022/10/30 17:11:05;;;;;;;77.57;35.72;;;;;;;;;;5004635;28;20601;-39
2022/10/30 17:13:41;;;;;;;97.47;32.17;;;;;;;;;;5006973;28;20074;-39
2022/10/30 17:16:10;;;;;;;80.22;28.98;;;;;;;;;;5006887;28;20034;-39
2022/10/30 17:18:37;;;;;;;64.15;24.25;;;;;;;;;;5006931;28;20074;-40
2022/10/30 17:21:08;;;;;;;78.55;27.08;;;;;;;;;;5004406;28;20121;-38
2022/10/30 17:23:35;;;;;;;77.28;27.98;;;;;;;;;;5004095;28;20501;-39
2022/10/30 17:26:08;;;;;;;70.50;26.35;;;;;;;;;;5004965;28;20034;-40
2022/10/30 17:28:36;;;;;;;81.80;29.88;;;;;;;;;;5006851;28;20494;-40
2022/10/30 17:31:20;;;;;;;61.13;28.08;;;;;;;;;;5008074;28;20042;-40
2022/10/30 17:34:01;;;;;;;89.80;34.15;;;;;;;;;;5003990;28;20060;-39
2022/10/30 17:36:28;;;;;;;66.95;28.92;;;;;;;;;;5006264;28;20030;-39
2022/10/30 17:38:54;;;;;;;64.07;29.33;;;;;;;;;;5003804;28;20556;-39
2022/10/30 17:41:21;;;;;;;93.63;34.03;;;;;;;;;;5005319;28;20049;-38
2022/10/30 17:43:48;;;;;;;74.63;31.67;;;;;;;;;;5004523;28;20058;-38
2022/10/30 17:46:15;;;;;;;78.70;30.60;;;;;;;;;;5007705;28;20096;-39
2022/10/30 17:48:46;;;;;;;75.38;31.45;;;;;;;;;;5003481;28;20045;-39
2022/10/30 17:51:12;;;;;;;75.82;28.63;;;;;;;;;;5006865;28;20046;-39
2022/10/30 17:53:39;;;;;;;84.93;30.27;;;;;;;;;;5003034;28;20046;-39
2022/10/30 17:56:11;;;;;;;80.50;29.27;;;;;;;;;;5004735;28;20117;-39
2022/10/30 17:58:37;;;;;;;91.88;29.25;;;;;;;;;;5005860;28;20153;-39
2022/10/30 18:01:04;;;;;;;57.88;26.08;;;;;;;;;;5007722;28;20038;-39
2022/10/30 18:03:31;;;;;;;103.90;30.30;;;;;;;;;;5001811;28;20061;-39
2022/10/30 18:06:00;;;;;;;75.15;27.45;;;;;;;;;;5004740;28;20425;-38
2022/10/30 18:08:26;;;;;;;73.50;25.85;;;;;;;;;;5003805;28;20057;-39
2022/10/30 18:10:53;;;;;;;95.82;34.70;;;;;;;;;;5004084;28;20106;-38
2022/10/30 18:13:20;;;;;;;97.20;39.45;;;;;;;;;;5008543;28;20038;-39
2022/10/30 18:15:51;;;;;;;103.07;45.00;;;;;;;;;;5008157;28;20041;-38
2022/10/30 18:18:18;;;;;;;92.25;38.42;;;;;;;;;;5007490;28;20091;-39
2022/10/30 18:20:44;;;;;;;75.30;34.72;;;;;;;;;;5008078;28;20046;-39
2022/10/30 18:23:16;;;;;;;75.70;35.60;;;;;;;;;;5007615;28;20042;-39
2022/10/30 18:26:02;;;;;;;73.68;35.72;;;;;;;;;;5006619;28;20049;-39
2022/10/30 18:28:29;;;;;;;81.82;36.85;;;;;;;;;;5009393;28;20077;-38
2022/10/30 18:30:57;;;;;;;82.35;36.55;;;;;;;;;;5008717;28;20387;-39
2022/10/30 18:33:23;;;;;;;69.22;34.22;;;;;;;;;;5009793;28;20046;-39
2022/10/30 18:35:50;;;;;;;77.30;35.45;;;;;;;;;;5006769;28;20045;-39
2022/10/30 18:38:16;;;;;;;83.10;35.67;;;;;;;;;;5005932;28;20574;-39
2022/10/30 18:40:44;;;;;;;98.07;37.72;;;;;;;;;;5008416;28;20046;-40
2022/10/30 18:43:11;;;;;;;87.13;34.60;;;;;;;;;;5011096;28;20044;-39
2022/10/30 18:45:39;;;;;;;89.22;33.75;;;;;;;;;;5006743;28;20053;-39
2022/10/30 18:48:06;;;;;;;73.00;31.10;;;;;;;;;;5005774;28;20525;-39
2022/10/30 18:50:34;;;;;;;84.93;30.50;;;;;;;;;;5006962;28;20065;-39
2022/10/30 18:53:00;;;;;;;79.93;30.90;;;;;;;;;;5007023;28;20689;-39
2022/10/30 18:55:35;;;;;;;89.03;32.20;;;;;;;;;;5011030;28;20042;-39
2022/10/30 18:58:02;;;;;;;75.97;32.35;;;;;;;;;;5010079;28;20046;-38
2022/10/30 19:00:29;;;;;;;76.28;31.25;;;;;;;;;;5006246;28;20066;-38
2022/10/30 19:03:10;;;;;;;83.05;33.03;;;;;;;;;;5006649;28;20045;-39
2022/10/30 19:05:37;;;;;;;110.22;34.80;;;;;;;;;;5006517;28;20117;-41
2022/10/30 19:08:04;;;;;;;90.72;34.70;;;;;;;;;;5009348;28;20042;-42
2022/10/30 19:10:32;;;;;;;115.45;36.83;;;;;;;;;;5007633;28;20042;-39
2022/10/30 19:13:00;;;;;;;84.97;33.25;;;;;;;;;;5008677;28;20132;-41
2022/10/30 19:15:39;;;;;;;82.75;32.83;;;;;;;;;;5006288;28;20046;-39
2022/10/30 19:18:06;;;;;;;111.38;34.15;;;;;;;;;;5004783;28;20120;-39
2022/10/30 19:20:33;;;;;;;89.38;35.88;;;;;;;;;;5009469;28;20045;-38
2022/10/30 19:23:21;;;;;;;103.30;39.00;;;;;;;;;;5006796;28;20053;-39
2022/10/30 19:25:47;;;;;;;105.07;39.75;;;;;;;;;;5009312;28;20053;-42
2022/10/30 19:28:15;;;;;;;92.18;35.05;;;;;;;;;;5000668;28;20141;-39
2022/10/30 19:30:44;;;;;;;110.82;38.72;;;;;;;;;;5006042;28;20038;-45
2022/10/30 19:33:10;;;;;;;96.00;36.75;;;;;;;;;;5005759;28;20068;-39
2022/10/30 19:35:36;;;;;;;88.30;37.08;;;;;;;;;;5007529;28;20042;-39
2022/10/30 19:38:06;;;;;;;99.78;38.30;;;;;;;;;;5007077;28;20038;-40
2022/10/30 19:40:34;;;;;;;99.05;38.50;;;;;;;;;;5008695;28;20045;-39
2022/10/30 19:43:00;;;;;;;107.78;40.58;;;;;;;;;;5009343;28;20034;-39
2022/10/30 19:45:28;;;;;;;105.40;42.53;;;;;;;;;;5007348;28;20696;-39
2022/10/30 19:47:56;;;;;;;94.60;43.55;;;;;;;;;;5009533;28;20038;-40
2022/10/30 19:50:25;;;;;;;123.78;46.95;;;;;;;;;;5007075;28;20069;-40
2022/10/30 19:52:52;;;;;;;113.18;44.47;;;;;;;;;;5002760;28;20043;-40
2022/10/30 19:55:19;;;;;;;96.00;41.30;;;;;;;;;;5010164;28;20101;-40
2022/10/30 19:57:46;;;;;;;102.00;42.65;;;;;;;;;;5006968;28;20088;-40
2022/10/30 20:00:14;;;;;;;122.47;47.60;;;;;;;;;;5006864;28;20478;-40
2022/10/30 20:02:41;;;;;;;108.90;46.58;;;;;;;;;;5007048;28;20061;-41
2022/10/30 20:05:09;;;;;;;149.45;60.03;;;;;;;;;;5007156;28;20037;-39
2022/10/30 20:07:35;;;;;;;162.43;58.33;;;;;;;;;;5007552;28;20092;-40
2022/10/30 20:10:03;;;;;;;117.82;54.35;;;;;;;;;;5009419;28;20053;-40
2022/10/30 20:12:29;;;;;;;141.25;54.80;;;;;;;;;;5006814;28;20050;-40
2022/10/30 20:14:56;;;;;;;151.00;58.13;;;;;;;;;;5006927;28;20057;-39
2022/10/30 20:17:22;;;;;;;116.85;52.88;;;;;;;;;;5007475;28;20159;-39
2022/10/30 20:19:49;;;;;;;123.05;53.45;;;;;;;;;;5006946;28;20069;-40
2022/10/30 20:22:15;;;;;;;146.73;54.47;;;;;;;;;;5009198;28;20050;-38
2022/10/30 20:24:41;;;;;;;127.75;52.13;;;;;;;;;;5005488;28;20042;-39
2022/10/30 20:27:08;;;;;;;115.03;49.22;;;;;;;;;;5000439;28;20423;-39
2022/10/30 20:29:35;;;;;;;118.00;49.05;;;;;;;;;;5004869;28;20409;-39
2022/10/30 20:32:02;;;;;;;102.50;46.10;;;;;;;;;;5006009;28;20479;-39
2022/10/30 20:34:28;;;;;;;102.43;47.78;;;;;;;;;;5009611;28;20046;-40
2022/10/30 20:36:55;;;;;;;102.85;46.88;;;;;;;;;;5006460;28;20584;-40
2022/10/30 20:39:22;;;;;;;117.80;49.22;;;;;;;;;;5005766;28;20033;-39
2022/10/30 20:41:48;;;;;;;95.25;42.38;;;;;;;;;;5005470;28;20045;-39
2022/10/30 20:44:14;;;;;;;109.85;45.70;;;;;;;;;;5007705;28;20505;-39
2022/10/30 20:46:41;;;;;;;120.47;49.88;;;;;;;;;;5007444;28;20383;-40
2022/10/30 20:49:07;;;;;;;84.30;42.88;;;;;;;;;;5008707;28;20485;-40
2022/10/30 20:51:43;;;;;;;108.68;46.25;;;;;;;;;;5005482;28;20040;-41
2022/10/30 20:54:09;;;;;;;99.70;45.65;;;;;;;;;;5004716;28;20040;-40
2022/10/30 20:56:36;;;;;;;93.10;45.25;;;;;;;;;;5005502;28;20042;-39
2022/10/30 20:59:02;;;;;;;98.55;44.97;;;;;;;;;;5006295;28;20777;-38
2022/10/30 21:01:29;;;;;;;89.68;43.95;;;;;;;;;;5010012;28;20053;-40
2022/10/30 21:03:56;;;;;;;112.32;50.85;;;;;;;;;;5007174;28;20068;-40
2022/10/30 21:06:27;;;;;;;101.32;44.33;;;;;;;;;;5009043;28;20486;-39
2022/10/30 21:08:53;;;;;;;113.43;46.30;;;;;;;;;;5004941;28;20513;-39
2022/10/30 21:11:20;;;;;;;105.70;48.97;;;;;;;;;;5000866;28;20058;-39
2022/10/30 21:13:47;;;;;;;123.78;48.53;;;;;;;;;;5005658;28;20035;-40
2022/10/30 21:16:13;;;;;;;98.40;43.80;;;;;;;;;;5008790;28;20054;-39
2022/10/30 21:18:40;;;;;;;104.10;47.72;;;;;;;;;;5005119;28;20045;-40
2022/10/30 21:21:07;;;;;;;103.88;45.00;;;;;;;;;;5004970;28;20506;-39
2022/10/30 21:23:33;;;;;;;106.78;46.10;;;;;;;;;;5004326;28;20168;-39
2022/10/30 21:26:00;;;;;;;88.30;43.28;;;;;;;;;;5005490;28;20084;-39
2022/10/30 21:28:27;;;;;;;104.93;43.67;;;;;;;;;;5008653;28;20564;-40
2022/10/30 21:30:53;;;;;;;95.97;41.47;;;;;;;;;;5009096;28;20494;-40
2022/10/30 21:33:20;;;;;;;88.57;41.17;;;;;;;;;;5005218;28;20061;-40
2022/10/30 21:35:46;;;;;;;100.03;46.35;;;;;;;;;;5004906;28;20049;-40
2022/10/30 21:38:13;;;;;;;91.95;42.50;;;;;;;;;;5004596;28;20035;-40
2022/10/30 21:40:39;;;;;;;111.95;45.20;;;;;;;;;;5006423;28;20127;-40
2022/10/30 21:43:06;;;;;;;94.15;41.75;;;;;;;;;;5006973;28;20411;-39
2022/10/30 21:45:35;;;;;;;87.03;37.72;;;;;;;;;;5008259;28;20104;-39
2022/10/30 21:48:01;;;;;;;93.80;43.33;;;;;;;;;;5004840;28;20594;-40
2022/10/30 21:50:28;;;;;;;107.13;46.15;;;;;;;;;;5008561;28;20053;-40
2022/10/30 21:52:54;;;;;;;97.00;43.53;;;;;;;;;;5008344;28;20030;-40
2022/10/30 21:55:21;;;;;;;111.25;49.45;;;;;;;;;;5012872;28;20462;-40
2022/10/30 21:57:47;;;;;;;88.30;42.63;;;;;;;;;;5007960;28;20049;-40
2022/10/30 22:00:14;;;;;;;127.28;48.78;;;;;;;;;;5007828;28;20038;-41
2022/10/30 22:02:40;;;;;;;96.32;46.38;;;;;;;;;;5008503;28;20133;-41
2022/10/30 22:05:07;;;;;;;98.63;43.92;;;;;;;;;;5008628;28;20042;-40
2022/10/30 22:07:33;;;;;;;120.47;48.95;;;;;;;;;;5011066;28;20037;-40
2022/10/30 22:10:00;;;;;;;90.50;42.42;;;;;;;;;;5012759;28;20048;-41
2022/10/30 22:12:26;;;;;;;113.38;50.40;;;;;;;;;;5008203;28;20034;-40
2022/10/30 22:14:53;;;;;;;116.03;53.70;;;;;;;;;;5008443;28;20042;-40
2022/10/30 22:17:19;;;;;;;105.45;51.42;;;;;;;;;;5008621;28;20046;-40
2022/10/30 22:19:46;;;;;;;114.30;47.38;;;;;;;;;;5011792;28;20053;-40
2022/10/30 22:22:12;;;;;;;146.55;55.42;;;;;;;;;;5012308;28;20522;-41
2022/10/30 22:24:39;;;;;;;92.85;44.70;;;;;;;;;;5011611;28;20042;-40
2022/10/30 22:27:05;;;;;;;89.90;43.60;;;;;;;;;;5007448;28;20045;-39
2022/10/30 22:29:32;;;;;;;114.28;49.30;;;;;;;;;;5006800;28;20040;-40
2022/10/30 22:31:58;;;;;;;100.03;46.60;;;;;;;;;;5007911;28;20038;-41
2022/10/30 22:34:25;;;;;;;90.18;38.95;;;;;;;;;;5011548;28;20073;-41
2022/10/30 22:36:51;;;;;;;97.68;42.45;;;;;;;;;;5011843;28;20045;-40
2022/10/30 22:39:18;;;;;;;101.88;43.40;;;;;;;;;;5007530;28;20038;-40
2022/10/30 22:41:44;;;;;;;109.45;44.85;;;;;;;;;;5008117;28;20056;-39
2022/10/30 22:44:12;;;;;;;91.57;38.78;;;;;;;;;;5011524;28;20041;-39
2022/10/30 22:46:39;;;;;;;95.45;39.40;;;;;;;;;;5010396;28;20042;-40
2022/10/30 22:49:05;;;;;;;77.13;37.95;;;;;;;;;;5010085;28;20042;-40
2022/10/30 22:51:33;;;;;;;94.20;46.03;;;;;;;;;;5007506;28;20060;-40
2022/10/30 22:54:00;;;;;;;95.80;46.15;;;;;;;;;;5006749;28;20508;-41
2022/10/30 22:56:28;;;;;;;94.90;45.53;;;;;;;;;;5007301;28;20812;-40
2022/10/30 22:58:55;;;;;;;109.15;46.45;;;;;;;;;;5007319;28;20069;-41
2022/10/30 23:01:26;;;;;;;98.57;44.50;;;;;;;;;;5011337;28;20084;-39
2022/10/30 23:03:57;;;;;;;104.20;45.35;;;;;;;;;;5007703;28;20133;-39
2022/10/30 23:06:24;;;;;;;108.28;48.88;;;;;;;;;;5006920;28;20041;-41
2022/10/30 23:08:51;;;;;;;80.15;38.22;;;;;;;;;;5007211;28;20048;-39
2022/10/30 23:11:17;;;;;;;109.57;45.83;;;;;;;;;;5010212;28;20046;-39
2022/10/30 23:13:46;;;;;;;119.88;42.30;;;;;;;;;;5009491;28;20045;-38
2022/10/30 23:16:17;;;;;;;111.85;45.65;;;;;;;;;;5010585;28;20449;-39
2022/10/30 23:18:44;;;;;;;94.75;41.75;;;;;;;;;;5007098;28;20038;-39
2022/10/30 23:21:12;;;;;;;101.32;38.80;;;;;;;;;;5006531;28;20034;-39
2022/10/30 23:23:39;;;;;;;94.45;40.53;;;;;;;;;;5006277;28;20525;-39
2022/10/30 23:26:07;;;;;;;99.25;42.90;;;;;;;;;;5006423;28;20042;-39
2022/10/30 23:28:34;;;;;;;97.50;37.72;;;;;;;;;;5009339;28;20061;-38
2022/10/30 23:31:02;;;;;;;75.45;35.15;;;;;;;;;;5010704;28;20038;-39
2022/10/30 23:33:29;;;;;;;97.68;39.97;;;;;;;;;;5006832;28;20049;-39
2022/10/30 23:35:59;;;;;;;100.88;43.42;;;;;;;;;;5006821;28;20103;-42
2022/10/30 23:38:25;;;;;;;94.03;37.97;;;;;;;;;;5006668;28;20030;-40
2022/10/30 23:40:52;;;;;;;87.57;38.90;;;;;;;;;;5007030;28;20046;-39
2022/10/30 23:43:19;;;;;;;93.55;38.42;;;;;;;;;;5010099;28;20100;-39
2022/10/30 23:45:45;;;;;;;73.13;32.97;;;;;;;;;;5006315;28;20042;-39
2022/10/30 23:48:12;;;;;;;100.53;38.13;;;;;;;;;;5006043;28;20042;-39
2022/10/30 23:50:38;;;;;;;105.90;38.72;;;;;;;;;;5006496;28;20143;-39
2022/10/30 23:53:05;;;;;;;72.47;33.85;;;;;;;;;;5006633;28;20419;-39
2022/10/30 23:55:31;;;;;;;89.18;39.45;;;;;;;;;;5010602;28;20407;-39
2022/10/30 23:57:58;;;;;;;90.70;35.28;;;;;;;;;;5007657;28;20125;-39
